sensor_id;sensor_type;location;lat;lon;timestamp;P1;durP1;ratioP1;P2;durP2;ratioP2
77287;SDS011;66345;42.694;23.346;2023-04-29T00:01:06;13.47;;;5.53;;
77287;SDS011;66345;42.694;23.346;2023-04-29T00:03:31;14.77;;;6.32;;
77287;SDS011;66345;42.694;23.346;2023-04-29T00:05:57;14.37;;;6.90;;
77287;SDS011;66345;42.694;23.346;2023-04-29T00:08:23;15.98;;;6.22;;
77287;SDS011;66345;42.694;23.346;2023-04-29T00:10:49;10.33;;;5.00;;
77287;SDS011;66345;42.694;23.346;2023-04-29T00:13:15;11.88;;;5.30;;
77287;SDS011;66345;42.694;23.346;2023-04-29T00:15:41;12.63;;;4.90;;
77287;SDS011;66345;42.694;23.346;2023-04-29T00:18:08;11.48;;;5.55;;
77287;SDS011;66345;42.694;23.346;2023-04-29T00:20:34;12.00;;;5.18;;
77287;SDS011;66345;42.694;23.346;2023-04-29T00:23:00;10.43;;;4.70;;
77287;SDS011;66345;42.694;23.346;2023-04-29T00:25:26;11.32;;;5.20;;
77287;SDS011;66345;42.694;23.346;2023-04-29T00:27:52;9.00;;;4.87;;
77287;SDS011;66345;42.694;23.346;2023-04-29T00:30:17;11.25;;;5.00;;
77287;SDS011;66345;42.694;23.346;2023-04-29T00:32:43;9.53;;;4.60;;
77287;SDS011;66345;42.694;23.346;2023-04-29T00:35:08;9.73;;;4.70;;
77287;SDS011;66345;42.694;23.346;2023-04-29T00:37:34;13.10;;;4.80;;
77287;SDS011;66345;42.694;23.346;2023-04-29T00:40:00;10.67;;;5.20;;
77287;SDS011;66345;42.694;23.346;2023-04-29T00:42:26;11.85;;;4.90;;
77287;SDS011;66345;42.694;23.346;2023-04-29T00:44:53;10.32;;;5.30;;
77287;SDS011;66345;42.694;23.346;2023-04-29T00:47:18;9.87;;;5.13;;
77287;SDS011;66345;42.694;23.346;2023-04-29T00:49:44;10.73;;;5.38;;
77287;SDS011;66345;42.694;23.346;2023-04-29T00:52:10;12.60;;;4.97;;
77287;SDS011;66345;42.694;23.346;2023-04-29T00:54:36;12.70;;;5.10;;
77287;SDS011;66345;42.694;23.346;2023-04-29T00:57:03;13.82;;;5.10;;
77287;SDS011;66345;42.694;23.346;2023-04-29T00:59:31;14.43;;;5.10;;
77287;SDS011;66345;42.694;23.346;2023-04-29T01:02:01;12.10;;;5.15;;
77287;SDS011;66345;42.694;23.346;2023-04-29T01:04:28;11.25;;;5.55;;
77287;SDS011;66345;42.694;23.346;2023-04-29T01:07:04;9.98;;;4.82;;
77287;SDS011;66345;42.694;23.346;2023-04-29T01:12:23;11.43;;;5.03;;
77287;SDS011;66345;42.694;23.346;2023-04-29T01:17:41;11.85;;;5.85;;
77287;SDS011;66345;42.694;23.346;2023-04-29T01:20:10;12.57;;;5.93;;
77287;SDS011;66345;42.694;23.346;2023-04-29T01:22:36;11.57;;;5.13;;
77287;SDS011;66345;42.694;23.346;2023-04-29T01:25:03;10.50;;;5.45;;
77287;SDS011;66345;42.694;23.346;2023-04-29T01:27:34;13.27;;;6.45;;
77287;SDS011;66345;42.694;23.346;2023-04-29T01:32:59;12.27;;;5.73;;
77287;SDS011;66345;42.694;23.346;2023-04-29T01:38:35;13.57;;;5.65;;
77287;SDS011;66345;42.694;23.346;2023-04-29T01:41:10;9.85;;;5.90;;
77287;SDS011;66345;42.694;23.346;2023-04-29T01:43:40;14.23;;;6.20;;
77287;SDS011;66345;42.694;23.346;2023-04-29T01:46:09;13.13;;;5.77;;
77287;SDS011;66345;42.694;23.346;2023-04-29T01:48:37;11.75;;;5.45;;
77287;SDS011;66345;42.694;23.346;2023-04-29T01:51:03;10.95;;;5.00;;
77287;SDS011;66345;42.694;23.346;2023-04-29T01:53:31;10.77;;;5.00;;
77287;SDS011;66345;42.694;23.346;2023-04-29T01:55:56;12.95;;;5.03;;
77287;SDS011;66345;42.694;23.346;2023-04-29T01:58:22;8.27;;;4.63;;
77287;SDS011;66345;42.694;23.346;2023-04-29T02:00:47;12.20;;;5.20;;
77287;SDS011;66345;42.694;23.346;2023-04-29T02:03:13;10.47;;;4.90;;
77287;SDS011;66345;42.694;23.346;2023-04-29T02:05:38;9.10;;;5.03;;
77287;SDS011;66345;42.694;23.346;2023-04-29T02:08:06;9.88;;;4.40;;
77287;SDS011;66345;42.694;23.346;2023-04-29T02:10:31;10.23;;;4.75;;
77287;SDS011;66345;42.694;23.346;2023-04-29T02:12:57;10.55;;;4.88;;
77287;SDS011;66345;42.694;23.346;2023-04-29T02:15:25;9.57;;;4.97;;
77287;SDS011;66345;42.694;23.346;2023-04-29T02:17:52;10.20;;;4.90;;
77287;SDS011;66345;42.694;23.346;2023-04-29T02:20:18;9.25;;;4.13;;
77287;SDS011;66345;42.694;23.346;2023-04-29T02:22:44;9.20;;;4.90;;
77287;SDS011;66345;42.694;23.346;2023-04-29T02:25:09;9.37;;;5.00;;
77287;SDS011;66345;42.694;23.346;2023-04-29T02:27:35;10.73;;;4.93;;
77287;SDS011;66345;42.694;23.346;2023-04-29T02:30:01;11.03;;;4.87;;
77287;SDS011;66345;42.694;23.346;2023-04-29T02:32:28;11.23;;;5.20;;
77287;SDS011;66345;42.694;23.346;2023-04-29T02:34:54;9.02;;;4.45;;
77287;SDS011;66345;42.694;23.346;2023-04-29T02:37:20;10.57;;;4.83;;
77287;SDS011;66345;42.694;23.346;2023-04-29T02:39:45;8.37;;;4.77;;
77287;SDS011;66345;42.694;23.346;2023-04-29T02:42:11;10.45;;;4.53;;
77287;SDS011;66345;42.694;23.346;2023-04-29T02:44:37;8.38;;;4.30;;
77287;SDS011;66345;42.694;23.346;2023-04-29T02:47:02;8.80;;;3.97;;
77287;SDS011;66345;42.694;23.346;2023-04-29T02:49:28;11.63;;;4.50;;
77287;SDS011;66345;42.694;23.346;2023-04-29T02:51:53;8.10;;;4.20;;
77287;SDS011;66345;42.694;23.346;2023-04-29T02:54:19;11.03;;;4.47;;
77287;SDS011;66345;42.694;23.346;2023-04-29T02:56:44;8.13;;;4.03;;
77287;SDS011;66345;42.694;23.346;2023-04-29T02:59:10;8.17;;;4.07;;
77287;SDS011;66345;42.694;23.346;2023-04-29T03:01:35;10.23;;;3.77;;
77287;SDS011;66345;42.694;23.346;2023-04-29T03:04:02;11.13;;;3.70;;
77287;SDS011;66345;42.694;23.346;2023-04-29T03:06:28;7.50;;;3.80;;
77287;SDS011;66345;42.694;23.346;2023-04-29T03:08:53;11.02;;;3.88;;
77287;SDS011;66345;42.694;23.346;2023-04-29T03:11:19;13.27;;;4.37;;
77287;SDS011;66345;42.694;23.346;2023-04-29T03:13:44;10.07;;;4.37;;
77287;SDS011;66345;42.694;23.346;2023-04-29T03:16:10;9.23;;;4.57;;
77287;SDS011;66345;42.694;23.346;2023-04-29T03:18:38;10.20;;;4.03;;
77287;SDS011;66345;42.694;23.346;2023-04-29T03:21:04;11.55;;;4.18;;
77287;SDS011;66345;42.694;23.346;2023-04-29T03:23:29;11.60;;;4.38;;
77287;SDS011;66345;42.694;23.346;2023-04-29T03:25:55;11.50;;;4.43;;
77287;SDS011;66345;42.694;23.346;2023-04-29T03:28:20;8.93;;;4.23;;
77287;SDS011;66345;42.694;23.346;2023-04-29T03:30:46;9.03;;;4.00;;
77287;SDS011;66345;42.694;23.346;2023-04-29T03:33:11;9.48;;;4.55;;
77287;SDS011;66345;42.694;23.346;2023-04-29T03:35:37;10.07;;;3.97;;
77287;SDS011;66345;42.694;23.346;2023-04-29T03:38:02;9.57;;;4.83;;
77287;SDS011;66345;42.694;23.346;2023-04-29T03:40:28;12.00;;;4.20;;
77287;SDS011;66345;42.694;23.346;2023-04-29T03:42:53;10.38;;;4.53;;
77287;SDS011;66345;42.694;23.346;2023-04-29T03:45:19;13.60;;;5.00;;
77287;SDS011;66345;42.694;23.346;2023-04-29T03:47:44;12.23;;;4.67;;
77287;SDS011;66345;42.694;23.346;2023-04-29T03:50:09;10.67;;;4.70;;
77287;SDS011;66345;42.694;23.346;2023-04-29T03:52:36;10.88;;;4.72;;
77287;SDS011;66345;42.694;23.346;2023-04-29T03:55:01;11.38;;;4.50;;
77287;SDS011;66345;42.694;23.346;2023-04-29T03:57:27;9.80;;;4.20;;
77287;SDS011;66345;42.694;23.346;2023-04-29T03:59:53;8.27;;;4.25;;
77287;SDS011;66345;42.694;23.346;2023-04-29T04:02:18;8.10;;;3.88;;
77287;SDS011;66345;42.694;23.346;2023-04-29T04:04:44;10.63;;;4.30;;
77287;SDS011;66345;42.694;23.346;2023-04-29T04:07:09;11.00;;;4.27;;
77287;SDS011;66345;42.694;23.346;2023-04-29T04:09:36;9.27;;;4.53;;
77287;SDS011;66345;42.694;23.346;2023-04-29T04:12:02;10.18;;;4.05;;
77287;SDS011;66345;42.694;23.346;2023-04-29T04:14:28;10.60;;;4.20;;
77287;SDS011;66345;42.694;23.346;2023-04-29T04:16:54;10.80;;;4.47;;
77287;SDS011;66345;42.694;23.346;2023-04-29T04:19:19;9.82;;;4.40;;
77287;SDS011;66345;42.694;23.346;2023-04-29T04:21:45;10.10;;;4.40;;
77287;SDS011;66345;42.694;23.346;2023-04-29T04:24:11;11.80;;;4.55;;
77287;SDS011;66345;42.694;23.346;2023-04-29T04:26:38;11.65;;;4.95;;
77287;SDS011;66345;42.694;23.346;2023-04-29T04:29:05;9.23;;;4.50;;
77287;SDS011;66345;42.694;23.346;2023-04-29T04:31:30;9.18;;;4.90;;
77287;SDS011;66345;42.694;23.346;2023-04-29T04:33:56;11.10;;;4.70;;
77287;SDS011;66345;42.694;23.346;2023-04-29T04:36:23;12.43;;;4.70;;
77287;SDS011;66345;42.694;23.346;2023-04-29T04:38:49;8.90;;;4.83;;
77287;SDS011;66345;42.694;23.346;2023-04-29T04:41:14;10.00;;;5.00;;
77287;SDS011;66345;42.694;23.346;2023-04-29T04:43:40;11.60;;;4.88;;
77287;SDS011;66345;42.694;23.346;2023-04-29T04:46:12;10.73;;;4.63;;
77287;SDS011;66345;42.694;23.346;2023-04-29T04:48:41;11.90;;;5.40;;
77287;SDS011;66345;42.694;23.346;2023-04-29T04:51:10;13.93;;;5.55;;
77287;SDS011;66345;42.694;23.346;2023-04-29T04:53:38;16.20;;;6.85;;
77287;SDS011;66345;42.694;23.346;2023-04-29T04:56:05;15.27;;;7.10;;
77287;SDS011;66345;42.694;23.346;2023-04-29T04:58:31;18.52;;;8.48;;
77287;SDS011;66345;42.694;23.346;2023-04-29T05:00:57;17.60;;;7.83;;
77287;SDS011;66345;42.694;23.346;2023-04-29T05:03:24;15.00;;;7.28;;
77287;SDS011;66345;42.694;23.346;2023-04-29T05:05:55;13.25;;;6.78;;
77287;SDS011;66345;42.694;23.346;2023-04-29T05:08:24;15.10;;;6.38;;
77287;SDS011;66345;42.694;23.346;2023-04-29T05:10:50;17.95;;;6.80;;
77287;SDS011;66345;42.694;23.346;2023-04-29T05:13:16;20.20;;;6.40;;
77287;SDS011;66345;42.694;23.346;2023-04-29T05:15:42;9.13;;;5.23;;
77287;SDS011;66345;42.694;23.346;2023-04-29T05:18:08;11.18;;;5.43;;
77287;SDS011;66345;42.694;23.346;2023-04-29T05:20:34;12.00;;;5.78;;
77287;SDS011;66345;42.694;23.346;2023-04-29T05:23:00;9.60;;;5.13;;
77287;SDS011;66345;42.694;23.346;2023-04-29T05:25:25;11.85;;;5.55;;
77287;SDS011;66345;42.694;23.346;2023-04-29T05:27:51;12.07;;;5.50;;
77287;SDS011;66345;42.694;23.346;2023-04-29T05:30:17;13.30;;;5.05;;
77287;SDS011;66345;42.694;23.346;2023-04-29T05:32:43;14.32;;;5.65;;
77287;SDS011;66345;42.694;23.346;2023-04-29T05:35:12;11.97;;;5.80;;
77287;SDS011;66345;42.694;23.346;2023-04-29T05:37:39;16.30;;;6.32;;
77287;SDS011;66345;42.694;23.346;2023-04-29T05:40:05;15.10;;;6.05;;
77287;SDS011;66345;42.694;23.346;2023-04-29T05:42:31;13.50;;;6.53;;
77287;SDS011;66345;42.694;23.346;2023-04-29T05:44:57;16.77;;;6.27;;
77287;SDS011;66345;42.694;23.346;2023-04-29T05:47:22;20.53;;;6.23;;
77287;SDS011;66345;42.694;23.346;2023-04-29T05:49:48;15.83;;;6.37;;
77287;SDS011;66345;42.694;23.346;2023-04-29T05:52:14;16.17;;;6.18;;
77287;SDS011;66345;42.694;23.346;2023-04-29T05:54:39;10.88;;;5.50;;
77287;SDS011;66345;42.694;23.346;2023-04-29T05:57:05;14.30;;;6.18;;
77287;SDS011;66345;42.694;23.346;2023-04-29T05:59:31;16.75;;;6.50;;
77287;SDS011;66345;42.694;23.346;2023-04-29T06:01:58;11.50;;;6.05;;
77287;SDS011;66345;42.694;23.346;2023-04-29T06:04:24;9.90;;;4.80;;
77287;SDS011;66345;42.694;23.346;2023-04-29T06:06:50;9.75;;;4.60;;
77287;SDS011;66345;42.694;23.346;2023-04-29T06:09:17;9.93;;;5.07;;
77287;SDS011;66345;42.694;23.346;2023-04-29T06:11:44;9.57;;;4.63;;
77287;SDS011;66345;42.694;23.346;2023-04-29T06:14:10;11.68;;;5.65;;
77287;SDS011;66345;42.694;23.346;2023-04-29T06:16:35;11.57;;;4.90;;
77287;SDS011;66345;42.694;23.346;2023-04-29T06:19:01;7.90;;;4.90;;
77287;SDS011;66345;42.694;23.346;2023-04-29T06:21:27;10.07;;;4.88;;
77287;SDS011;66345;42.694;23.346;2023-04-29T06:23:53;9.33;;;5.20;;
77287;SDS011;66345;42.694;23.346;2023-04-29T06:26:18;7.82;;;4.80;;
77287;SDS011;66345;42.694;23.346;2023-04-29T06:28:45;9.55;;;5.45;;
77287;SDS011;66345;42.694;23.346;2023-04-29T06:31:11;9.60;;;4.83;;
77287;SDS011;66345;42.694;23.346;2023-04-29T06:33:36;7.60;;;4.78;;
77287;SDS011;66345;42.694;23.346;2023-04-29T06:36:02;7.80;;;4.57;;
77287;SDS011;66345;42.694;23.346;2023-04-29T06:38:28;6.15;;;3.92;;
77287;SDS011;66345;42.694;23.346;2023-04-29T06:40:54;8.18;;;3.92;;
77287;SDS011;66345;42.694;23.346;2023-04-29T06:43:21;8.13;;;4.50;;
77287;SDS011;66345;42.694;23.346;2023-04-29T06:45:47;9.13;;;4.05;;
77287;SDS011;66345;42.694;23.346;2023-04-29T06:48:12;7.77;;;3.50;;
77287;SDS011;66345;42.694;23.346;2023-04-29T06:50:38;6.07;;;3.30;;
77287;SDS011;66345;42.694;23.346;2023-04-29T06:53:03;6.13;;;3.50;;
77287;SDS011;66345;42.694;23.346;2023-04-29T06:55:30;8.68;;;3.60;;
77287;SDS011;66345;42.694;23.346;2023-04-29T06:57:55;6.53;;;3.90;;
77287;SDS011;66345;42.694;23.346;2023-04-29T07:00:21;10.90;;;4.43;;
77287;SDS011;66345;42.694;23.346;2023-04-29T07:02:47;9.03;;;4.60;;
77287;SDS011;66345;42.694;23.346;2023-04-29T07:05:12;10.85;;;5.38;;
77287;SDS011;66345;42.694;23.346;2023-04-29T07:07:38;12.63;;;5.87;;
77287;SDS011;66345;42.694;23.346;2023-04-29T07:10:04;11.45;;;5.93;;
77287;SDS011;66345;42.694;23.346;2023-04-29T07:12:30;9.65;;;5.13;;
77287;SDS011;66345;42.694;23.346;2023-04-29T07:14:56;11.70;;;4.80;;
77287;SDS011;66345;42.694;23.346;2023-04-29T07:17:22;10.43;;;4.30;;
77287;SDS011;66345;42.694;23.346;2023-04-29T07:19:47;9.25;;;4.10;;
77287;SDS011;66345;42.694;23.346;2023-04-29T07:22:13;9.20;;;4.40;;
77287;SDS011;66345;42.694;23.346;2023-04-29T07:24:38;11.10;;;4.70;;
77287;SDS011;66345;42.694;23.346;2023-04-29T07:27:03;7.23;;;4.37;;
77287;SDS011;66345;42.694;23.346;2023-04-29T07:29:29;8.32;;;4.22;;
77287;SDS011;66345;42.694;23.346;2023-04-29T07:31:55;6.40;;;4.37;;
77287;SDS011;66345;42.694;23.346;2023-04-29T07:34:21;7.70;;;4.70;;
77287;SDS011;66345;42.694;23.346;2023-04-29T07:36:46;7.53;;;4.30;;
77287;SDS011;66345;42.694;23.346;2023-04-29T07:39:12;7.57;;;4.43;;
77287;SDS011;66345;42.694;23.346;2023-04-29T07:41:39;7.87;;;4.33;;
77287;SDS011;66345;42.694;23.346;2023-04-29T07:44:04;7.47;;;4.07;;
77287;SDS011;66345;42.694;23.346;2023-04-29T07:46:30;7.77;;;4.20;;
77287;SDS011;66345;42.694;23.346;2023-04-29T07:48:55;9.63;;;4.30;;
77287;SDS011;66345;42.694;23.346;2023-04-29T07:51:22;10.23;;;4.93;;
77287;SDS011;66345;42.694;23.346;2023-04-29T07:53:47;8.87;;;4.30;;
77287;SDS011;66345;42.694;23.346;2023-04-29T07:56:13;7.70;;;4.33;;
77287;SDS011;66345;42.694;23.346;2023-04-29T07:58:38;8.85;;;4.50;;
77287;SDS011;66345;42.694;23.346;2023-04-29T08:01:05;9.30;;;4.00;;
77287;SDS011;66345;42.694;23.346;2023-04-29T08:03:35;7.22;;;4.63;;
77287;SDS011;66345;42.694;23.346;2023-04-29T08:06:01;9.13;;;4.00;;
77287;SDS011;66345;42.694;23.346;2023-04-29T08:08:30;7.38;;;4.25;;
77287;SDS011;66345;42.694;23.346;2023-04-29T08:10:55;7.50;;;4.87;;
77287;SDS011;66345;42.694;23.346;2023-04-29T08:13:21;7.33;;;4.60;;
77287;SDS011;66345;42.694;23.346;2023-04-29T08:15:46;7.83;;;4.70;;
77287;SDS011;66345;42.694;23.346;2023-04-29T08:18:12;8.90;;;4.50;;
77287;SDS011;66345;42.694;23.346;2023-04-29T08:20:38;7.43;;;4.20;;
77287;SDS011;66345;42.694;23.346;2023-04-29T08:23:04;8.50;;;4.70;;
77287;SDS011;66345;42.694;23.346;2023-04-29T08:25:30;5.70;;;3.90;;
77287;SDS011;66345;42.694;23.346;2023-04-29T08:27:55;7.53;;;4.27;;
77287;SDS011;66345;42.694;23.346;2023-04-29T08:30:21;7.68;;;4.50;;
77287;SDS011;66345;42.694;23.346;2023-04-29T08:32:47;7.53;;;4.30;;
77287;SDS011;66345;42.694;23.346;2023-04-29T08:35:12;9.43;;;4.47;;
77287;SDS011;66345;42.694;23.346;2023-04-29T08:37:38;7.53;;;4.13;;
77287;SDS011;66345;42.694;23.346;2023-04-29T08:40:03;7.80;;;4.20;;
77287;SDS011;66345;42.694;23.346;2023-04-29T08:42:33;24.35;;;19.58;;
77287;SDS011;66345;42.694;23.346;2023-04-29T08:45:01;8.90;;;5.00;;
77287;SDS011;66345;42.694;23.346;2023-04-29T08:47:31;8.40;;;5.05;;
77287;SDS011;66345;42.694;23.346;2023-04-29T08:50:02;8.03;;;4.60;;
77287;SDS011;66345;42.694;23.346;2023-04-29T08:52:32;7.68;;;4.60;;
77287;SDS011;66345;42.694;23.346;2023-04-29T08:55:00;8.13;;;4.50;;
77287;SDS011;66345;42.694;23.346;2023-04-29T08:57:27;8.23;;;5.20;;
77287;SDS011;66345;42.694;23.346;2023-04-29T08:59:57;7.88;;;4.55;;
77287;SDS011;66345;42.694;23.346;2023-04-29T09:02:24;8.03;;;4.27;;
77287;SDS011;66345;42.694;23.346;2023-04-29T09:05:08;8.38;;;4.90;;
77287;SDS011;66345;42.694;23.346;2023-04-29T09:07:38;7.40;;;4.20;;
77287;SDS011;66345;42.694;23.346;2023-04-29T09:10:05;7.68;;;4.68;;
77287;SDS011;66345;42.694;23.346;2023-04-29T09:12:32;9.13;;;4.50;;
77287;SDS011;66345;42.694;23.346;2023-04-29T09:14:57;9.20;;;4.40;;
77287;SDS011;66345;42.694;23.346;2023-04-29T09:23:07;7.13;;;4.07;;
77287;SDS011;66345;42.694;23.346;2023-04-29T09:25:32;6.38;;;3.90;;
77287;SDS011;66345;42.694;23.346;2023-04-29T09:27:58;7.15;;;3.90;;
77287;SDS011;66345;42.694;23.346;2023-04-29T09:30:46;6.77;;;3.70;;
77287;SDS011;66345;42.694;23.346;2023-04-29T09:33:12;6.60;;;3.67;;
77287;SDS011;66345;42.694;23.346;2023-04-29T09:35:39;11.85;;;3.80;;
77287;SDS011;66345;42.694;23.346;2023-04-29T09:38:08;8.38;;;4.05;;
77287;SDS011;66345;42.694;23.346;2023-04-29T09:40:38;6.88;;;3.97;;
77287;SDS011;66345;42.694;23.346;2023-04-29T09:43:10;6.77;;;3.83;;
77287;SDS011;66345;42.694;23.346;2023-04-29T09:45:39;7.97;;;4.00;;
77287;SDS011;66345;42.694;23.346;2023-04-29T09:48:06;9.65;;;3.88;;
77287;SDS011;66345;42.694;23.346;2023-04-29T09:50:34;7.53;;;4.30;;
77287;SDS011;66345;42.694;23.346;2023-04-29T09:53:03;7.70;;;4.13;;
77287;SDS011;66345;42.694;23.346;2023-04-29T09:56:18;8.57;;;4.17;;
77287;SDS011;66345;42.694;23.346;2023-04-29T09:58:28;10.32;;;4.70;;
77287;SDS011;66345;42.694;23.346;2023-04-29T10:00:56;7.95;;;4.13;;
77287;SDS011;66345;42.694;23.346;2023-04-29T10:03:26;8.63;;;3.92;;
77287;SDS011;66345;42.694;23.346;2023-04-29T10:06:04;9.02;;;4.38;;
77287;SDS011;66345;42.694;23.346;2023-04-29T10:08:31;6.70;;;3.60;;
77287;SDS011;66345;42.694;23.346;2023-04-29T10:10:58;8.20;;;3.75;;
77287;SDS011;66345;42.694;23.346;2023-04-29T10:13:25;7.63;;;4.03;;
77287;SDS011;66345;42.694;23.346;2023-04-29T10:18:47;8.20;;;4.03;;
77287;SDS011;66345;42.694;23.346;2023-04-29T10:21:17;8.40;;;3.93;;
77287;SDS011;66345;42.694;23.346;2023-04-29T10:23:46;6.57;;;3.75;;
77287;SDS011;66345;42.694;23.346;2023-04-29T10:26:12;8.80;;;4.05;;
77287;SDS011;66345;42.694;23.346;2023-04-29T10:28:39;8.07;;;3.78;;
77287;SDS011;66345;42.694;23.346;2023-04-29T10:31:07;6.95;;;3.55;;
77287;SDS011;66345;42.694;23.346;2023-04-29T10:33:33;6.17;;;3.33;;
77287;SDS011;66345;42.694;23.346;2023-04-29T10:36:00;6.97;;;3.80;;
77287;SDS011;66345;42.694;23.346;2023-04-29T10:38:35;8.68;;;3.70;;
77287;SDS011;66345;42.694;23.346;2023-04-29T10:41:19;8.38;;;3.63;;
77287;SDS011;66345;42.694;23.346;2023-04-29T10:43:50;7.35;;;3.45;;
77287;SDS011;66345;42.694;23.346;2023-04-29T10:46:17;7.50;;;3.07;;
77287;SDS011;66345;42.694;23.346;2023-04-29T10:48:47;5.80;;;2.88;;
77287;SDS011;66345;42.694;23.346;2023-04-29T10:51:47;6.45;;;3.00;;
77287;SDS011;66345;42.694;23.346;2023-04-29T10:54:13;7.38;;;3.08;;
77287;SDS011;66345;42.694;23.346;2023-04-29T10:56:46;6.80;;;2.90;;
77287;SDS011;66345;42.694;23.346;2023-04-29T10:59:19;7.03;;;2.87;;
77287;SDS011;66345;42.694;23.346;2023-04-29T11:01:49;6.82;;;2.70;;
77287;SDS011;66345;42.694;23.346;2023-04-29T11:04:17;5.03;;;2.53;;
77287;SDS011;66345;42.694;23.346;2023-04-29T11:06:45;4.60;;;2.40;;
77287;SDS011;66345;42.694;23.346;2023-04-29T11:09:24;5.40;;;2.10;;
77287;SDS011;66345;42.694;23.346;2023-04-29T11:12:00;6.07;;;2.10;;
77287;SDS011;66345;42.694;23.346;2023-04-29T11:14:31;4.07;;;1.95;;
77287;SDS011;66345;42.694;23.346;2023-04-29T11:19:40;5.57;;;2.13;;
77287;SDS011;66345;42.694;23.346;2023-04-29T11:24:53;5.32;;;2.03;;
77287;SDS011;66345;42.694;23.346;2023-04-29T11:27:30;4.55;;;1.90;;
77287;SDS011;66345;42.694;23.346;2023-04-29T11:29:58;5.68;;;1.90;;
77287;SDS011;66345;42.694;23.346;2023-04-29T11:32:28;4.47;;;1.95;;
77287;SDS011;66345;42.694;23.346;2023-04-29T11:34:55;5.05;;;1.90;;
77287;SDS011;66345;42.694;23.346;2023-04-29T11:37:32;6.93;;;2.58;;
77287;SDS011;66345;42.694;23.346;2023-04-29T11:39:58;6.15;;;2.00;;
77287;SDS011;66345;42.694;23.346;2023-04-29T11:42:25;7.30;;;2.30;;
77287;SDS011;66345;42.694;23.346;2023-04-29T11:44:51;4.72;;;1.90;;
77287;SDS011;66345;42.694;23.346;2023-04-29T11:47:18;6.10;;;1.90;;
77287;SDS011;66345;42.694;23.346;2023-04-29T11:49:45;5.18;;;1.88;;
77287;SDS011;66345;42.694;23.346;2023-04-29T11:52:12;6.25;;;1.45;;
77287;SDS011;66345;42.694;23.346;2023-04-29T11:54:37;4.80;;;1.70;;
77287;SDS011;66345;42.694;23.346;2023-04-29T11:57:05;5.72;;;2.20;;
77287;SDS011;66345;42.694;23.346;2023-04-29T11:59:30;4.27;;;1.60;;
77287;SDS011;66345;42.694;23.346;2023-04-29T12:01:58;3.15;;;1.35;;
77287;SDS011;66345;42.694;23.346;2023-04-29T12:04:24;5.25;;;1.85;;
77287;SDS011;66345;42.694;23.346;2023-04-29T12:06:50;4.57;;;2.10;;
77287;SDS011;66345;42.694;23.346;2023-04-29T12:09:17;5.55;;;1.80;;
77287;SDS011;66345;42.694;23.346;2023-04-29T12:11:43;4.38;;;1.60;;
77287;SDS011;66345;42.694;23.346;2023-04-29T12:14:11;4.28;;;1.60;;
77287;SDS011;66345;42.694;23.346;2023-04-29T12:16:38;4.38;;;1.70;;
77287;SDS011;66345;42.694;23.346;2023-04-29T12:19:05;5.10;;;1.95;;
77287;SDS011;66345;42.694;23.346;2023-04-29T12:21:32;4.47;;;1.60;;
77287;SDS011;66345;42.694;23.346;2023-04-29T12:23:58;3.92;;;1.45;;
77287;SDS011;66345;42.694;23.346;2023-04-29T12:26:26;6.07;;;1.83;;
77287;SDS011;66345;42.694;23.346;2023-04-29T12:28:53;5.28;;;1.90;;
77287;SDS011;66345;42.694;23.346;2023-04-29T12:31:19;4.38;;;1.80;;
77287;SDS011;66345;42.694;23.346;2023-04-29T12:33:45;4.78;;;1.70;;
77287;SDS011;66345;42.694;23.346;2023-04-29T12:36:16;6.37;;;1.60;;
77287;SDS011;66345;42.694;23.346;2023-04-29T12:38:43;5.53;;;1.92;;
77287;SDS011;66345;42.694;23.346;2023-04-29T12:41:09;4.80;;;1.60;;
77287;SDS011;66345;42.694;23.346;2023-04-29T12:43:37;5.45;;;1.73;;
77287;SDS011;66345;42.694;23.346;2023-04-29T12:46:04;5.53;;;1.90;;
77287;SDS011;66345;42.694;23.346;2023-04-29T12:48:34;4.55;;;1.70;;
77287;SDS011;66345;42.694;23.346;2023-04-29T12:51:07;4.50;;;1.50;;
77287;SDS011;66345;42.694;23.346;2023-04-29T12:53:34;5.60;;;1.57;;
77287;SDS011;66345;42.694;23.346;2023-04-29T12:55:59;4.82;;;1.80;;
77287;SDS011;66345;42.694;23.346;2023-04-29T12:58:28;4.35;;;1.67;;
77287;SDS011;66345;42.694;23.346;2023-04-29T13:00:58;4.40;;;1.60;;
77287;SDS011;66345;42.694;23.346;2023-04-29T13:03:24;5.68;;;2.10;;
77287;SDS011;66345;42.694;23.346;2023-04-29T13:05:49;6.77;;;1.50;;
77287;SDS011;66345;42.694;23.346;2023-04-29T13:08:17;4.82;;;2.10;;
77287;SDS011;66345;42.694;23.346;2023-04-29T13:10:43;5.80;;;2.20;;
77287;SDS011;66345;42.694;23.346;2023-04-29T13:13:09;5.80;;;1.97;;
77287;SDS011;66345;42.694;23.346;2023-04-29T13:15:35;3.67;;;1.50;;
77287;SDS011;66345;42.694;23.346;2023-04-29T13:18:01;4.13;;;1.70;;
77287;SDS011;66345;42.694;23.346;2023-04-29T13:20:26;5.05;;;1.60;;
77287;SDS011;66345;42.694;23.346;2023-04-29T13:22:52;5.70;;;1.77;;
77287;SDS011;66345;42.694;23.346;2023-04-29T13:25:18;4.67;;;1.80;;
77287;SDS011;66345;42.694;23.346;2023-04-29T13:27:43;5.10;;;1.50;;
77287;SDS011;66345;42.694;23.346;2023-04-29T13:30:09;3.20;;;1.23;;
77287;SDS011;66345;42.694;23.346;2023-04-29T13:32:35;4.50;;;1.50;;
77287;SDS011;66345;42.694;23.346;2023-04-29T13:35:01;5.33;;;1.50;;
77287;SDS011;66345;42.694;23.346;2023-04-29T13:37:28;5.18;;;1.30;;
77287;SDS011;66345;42.694;23.346;2023-04-29T13:39:53;5.73;;;1.70;;
77287;SDS011;66345;42.694;23.346;2023-04-29T13:42:20;7.10;;;1.73;;
77287;SDS011;66345;42.694;23.346;2023-04-29T13:44:45;4.85;;;1.35;;
77287;SDS011;66345;42.694;23.346;2023-04-29T13:47:11;3.67;;;1.37;;
77287;SDS011;66345;42.694;23.346;2023-04-29T13:49:38;3.80;;;1.45;;
77287;SDS011;66345;42.694;23.346;2023-04-29T13:52:04;4.95;;;1.48;;
77287;SDS011;66345;42.694;23.346;2023-04-29T13:54:30;3.83;;;1.30;;
77287;SDS011;66345;42.694;23.346;2023-04-29T13:56:56;4.50;;;1.67;;
77287;SDS011;66345;42.694;23.346;2023-04-29T13:59:21;3.33;;;1.40;;
77287;SDS011;66345;42.694;23.346;2023-04-29T14:01:46;3.92;;;1.20;;
77287;SDS011;66345;42.694;23.346;2023-04-29T14:04:12;3.47;;;1.00;;
77287;SDS011;66345;42.694;23.346;2023-04-29T14:06:38;4.68;;;1.48;;
77287;SDS011;66345;42.694;23.346;2023-04-29T14:09:05;3.90;;;1.30;;
77287;SDS011;66345;42.694;23.346;2023-04-29T14:11:30;5.47;;;1.60;;
77287;SDS011;66345;42.694;23.346;2023-04-29T14:14:00;3.50;;;1.70;;
77287;SDS011;66345;42.694;23.346;2023-04-29T14:16:26;5.30;;;2.03;;
77287;SDS011;66345;42.694;23.346;2023-04-29T14:18:52;4.45;;;1.45;;
77287;SDS011;66345;42.694;23.346;2023-04-29T14:21:18;4.77;;;1.60;;
77287;SDS011;66345;42.694;23.346;2023-04-29T14:23:46;5.70;;;1.52;;
77287;SDS011;66345;42.694;23.346;2023-04-29T14:26:12;5.50;;;2.20;;
77287;SDS011;66345;42.694;23.346;2023-04-29T14:28:37;3.67;;;1.53;;
77287;SDS011;66345;42.694;23.346;2023-04-29T14:31:02;3.83;;;1.60;;
77287;SDS011;66345;42.694;23.346;2023-04-29T14:33:28;3.92;;;1.45;;
77287;SDS011;66345;42.694;23.346;2023-04-29T14:35:53;4.80;;;1.50;;
77287;SDS011;66345;42.694;23.346;2023-04-29T14:38:19;3.27;;;1.43;;
77287;SDS011;66345;42.694;23.346;2023-04-29T14:40:46;3.83;;;1.40;;
77287;SDS011;66345;42.694;23.346;2023-04-29T14:43:11;5.70;;;1.80;;
77287;SDS011;66345;42.694;23.346;2023-04-29T14:45:37;5.10;;;1.70;;
77287;SDS011;66345;42.694;23.346;2023-04-29T14:48:02;3.63;;;1.50;;
77287;SDS011;66345;42.694;23.346;2023-04-29T14:50:28;4.57;;;1.30;;
77287;SDS011;66345;42.694;23.346;2023-04-29T14:52:54;4.72;;;1.83;;
77287;SDS011;66345;42.694;23.346;2023-04-29T14:55:21;4.10;;;1.95;;